EDT,Max TemperatureF,Mean TemperatureF,Min TemperatureF,Max Dew PointF,MeanDew PointF,Min DewpointF,Max Humidity, Mean Humidity, Min Humidity, Max Sea Level PressureIn, Mean Sea Level PressureIn, Min Sea Level PressureIn, Max VisibilityMiles, Mean VisibilityMiles, Min VisibilityMiles, Max Wind SpeedMPH, Mean Wind SpeedMPH, Max Gust SpeedMPH,PrecipitationIn, CloudCover, Events, WindDirDegrees
2014-3-1,48,36,24,27,19,9,88,63,37,30.23,30.13,30.06,10,8,4,17,10,19,0.00,6,,277
2014-3-2,24,19,14,20,14,7,92,80,67,30.30,30.23,30.19,10,5,0,16,11,29,0.09,8,Fog-Snow,18
2014-3-3,14,8,2,8,-1,-7,76,62,48,30.49,30.39,30.27,10,10,5,20,10,25,T,2,Snow,48
2014-3-4,30,17,4,14,5,-3,83,63,42,30.41,30.29,30.20,10,10,9,12,5,15,0.00,2,,134
2014-3-5,26,20,14,18,13,7,84,67,50,30.40,30.34,30.23,10,6,1,21,11,28,T,5,Snow,66
2014-3-6,37,27,16,24,16,8,88,72,56,30.40,30.27,30.15,10,8,5,17,9,24,0.00,0,,79
2014-3-7,53,36,18,31,25,17,92,67,41,30.11,30.02,29.94,10,7,2,12,5,15,0.00,0,,191
2014-3-8,44,36,28,35,31,23,92,79,65,30.21,30.07,29.94,9,4,2,18,9,22,0.00,5,,330
2014-3-9,42,31,19,29,21,16,84,64,44,30.30,30.17,29.95,10,10,8,16,8,23,0.00,2,,271
2014-3-10,58,47,36,39,34,29,76,62,47,29.95,29.80,29.70,10,8,5,22,12,27,0.00,1,,232
2014-3-11,66,55,43,46,41,35,89,66,42,29.70,29.65,29.58,10,8,5,17,7,22,0.00,0,,224
2014-3-12,44,31,17,36,27,10,92,81,69,30.05,29.62,29.36,10,4,0,35,20,42,0.99,7,Fog-Rain-Snow,3
2014-3-13,35,22,10,21,12,2,81,64,42,30.22,30.12,30.03,10,10,10,15,10,22,0.00,2,,258
2014-3-14,61,48,34,37,29,20,66,50,33,30.01,29.83,29.68,10,10,10,33,18,47,0.00,2,,231
2014-3-15,49,41,32,33,30,26,82,64,46,30.16,30.03,29.89,10,10,10,16,10,23,0.00,1,,310
2014-3-16,32,25,18,25,16,11,75,66,57,30.25,30.17,30.09,10,10,10,29,20,37,0.00,3,,61
2014-3-17,39,27,14,25,17,10,85,70,54,30.07,29.94,29.84,10,10,10,18,9,24,0.00,4,,90
2014-3-18,55,39,23,38,30,20,96,70,43,29.95,29.88,29.77,10,9,5,18,9,24,0.00,0,,150
2014-3-19,52,44,35,45,39,29,89,80,71,30.00,29.79,29.69,10,7,1,30,18,42,T,8,Rain,232
2014-3-20,48,40,31,34,28,23,82,66,50,30.09,30.04,30.00,10,10,9,24,11,32,0.00,6,,281
2014-3-21,67,50,33,34,31,29,89,58,26,30.04,29.91,29.73,10,8,4,20,9,26,T,2,,166
2014-3-22,56,45,34,38,30,27,82,59,35,30.22,30.05,29.73,10,10,8,24,11,30,0.00,6,,315
2014-3-23,35,28,21,28,17,13,82,64,45,30.37,30.31,30.23,10,10,10,17,11,20,0.00,7,,7
2014-3-24,36,28,19,17,12,8,77,56,35,30.37,30.28,30.12,10,10,10,14,4,19,0.00,2,,327
2014-3-25,32,25,18,24,20,14,85,67,49,30.23,30.05,29.97,10,4,0,28,11,34,T,7,Fog-Snow,296
2014-3-26,38,27,15,15,11,8,84,57,29,30.38,30.28,30.19,10,10,6,14,6,19,0.00,0,,213
2014-3-27,54,44,33,38,24,11,66,52,38,30.17,29.94,29.71,10,10,7,28,16,39,0.08,7,Rain,187
2014-3-28,51,44,37,46,39,32,86,76,66,30.15,29.90,29.62,10,10,4,32,17,44,0.13,6,Rain,271
2014-3-29,38,35,31,34,32,27,96,86,76,30.18,30.07,30.01,10,6,1,24,13,30,0.24,8,Rain,21
2014-3-30,52,38,24,31,27,23,92,65,38,30.26,30.19,30.14,10,9,6,13,6,17,0.00,0,,322
2014-3-31,67,49,31,31,29,28,82,54,26,30.17,30.07,29.89,10,10,10,24,11,32,T,1,,170